sensor_id;sensor_type;location;lat;lon;timestamp;temperature;humidity
60313;DHT22;46158;52.850;6.970;2023-02-19T00:00:55;15.10;77.80
60313;DHT22;46158;52.850;6.970;2023-02-19T00:03:20;15.10;77.80
60313;DHT22;46158;52.850;6.970;2023-02-19T00:05:46;15.00;77.70
60313;DHT22;46158;52.850;6.970;2023-02-19T00:08:11;15.10;77.70
60313;DHT22;46158;52.850;6.970;2023-02-19T00:10:37;15.00;77.60
60313;DHT22;46158;52.850;6.970;2023-02-19T00:13:02;15.10;77.70
60313;DHT22;46158;52.850;6.970;2023-02-19T00:15:30;15.00;77.60
60313;DHT22;46158;52.850;6.970;2023-02-19T00:17:56;15.00;77.60
60313;DHT22;46158;52.850;6.970;2023-02-19T00:20:21;15.00;77.50
60313;DHT22;46158;52.850;6.970;2023-02-19T00:22:47;15.00;77.50
60313;DHT22;46158;52.850;6.970;2023-02-19T00:25:13;15.00;77.50
60313;DHT22;46158;52.850;6.970;2023-02-19T00:27:38;15.00;77.50
60313;DHT22;46158;52.850;6.970;2023-02-19T00:30:04;15.00;77.40
60313;DHT22;46158;52.850;6.970;2023-02-19T00:32:29;15.00;77.40
60313;DHT22;46158;52.850;6.970;2023-02-19T00:34:55;15.00;77.50
60313;DHT22;46158;52.850;6.970;2023-02-19T00:37:20;15.00;77.40
60313;DHT22;46158;52.850;6.970;2023-02-19T00:39:46;15.00;77.40
60313;DHT22;46158;52.850;6.970;2023-02-19T00:42:12;15.00;77.30
60313;DHT22;46158;52.850;6.970;2023-02-19T00:44:38;15.00;77.30
60313;DHT22;46158;52.850;6.970;2023-02-19T00:47:03;15.00;77.30
60313;DHT22;46158;52.850;6.970;2023-02-19T00:49:29;14.90;77.20
60313;DHT22;46158;52.850;6.970;2023-02-19T00:51:54;15.00;77.30
60313;DHT22;46158;52.850;6.970;2023-02-19T00:54:20;14.90;77.20
60313;DHT22;46158;52.850;6.970;2023-02-19T00:56:47;14.90;77.20
60313;DHT22;46158;52.850;6.970;2023-02-19T00:59:13;14.90;77.10
60313;DHT22;46158;52.850;6.970;2023-02-19T01:01:38;14.90;77.20
60313;DHT22;46158;52.850;6.970;2023-02-19T01:04:04;14.90;77.10
60313;DHT22;46158;52.850;6.970;2023-02-19T01:06:30;14.90;77.10
60313;DHT22;46158;52.850;6.970;2023-02-19T01:08:57;14.90;77.10
60313;DHT22;46158;52.850;6.970;2023-02-19T01:11:22;14.90;77.10
60313;DHT22;46158;52.850;6.970;2023-02-19T01:13:48;14.90;77.10
60313;DHT22;46158;52.850;6.970;2023-02-19T01:18:39;14.80;77.00
60313;DHT22;46158;52.850;6.970;2023-02-19T01:21:05;14.80;77.00
60313;DHT22;46158;52.850;6.970;2023-02-19T01:23:31;14.80;77.00
60313;DHT22;46158;52.850;6.970;2023-02-19T01:25:57;14.80;77.00
60313;DHT22;46158;52.850;6.970;2023-02-19T01:28:22;14.80;77.00
60313;DHT22;46158;52.850;6.970;2023-02-19T01:30:48;14.80;77.00
60313;DHT22;46158;52.850;6.970;2023-02-19T01:33:13;14.80;76.90
60313;DHT22;46158;52.850;6.970;2023-02-19T01:35:39;14.80;76.90
60313;DHT22;46158;52.850;6.970;2023-02-19T01:38:05;14.80;76.90
60313;DHT22;46158;52.850;6.970;2023-02-19T01:40:32;14.80;77.00
60313;DHT22;46158;52.850;6.970;2023-02-19T01:42:58;14.80;76.90
60313;DHT22;46158;52.850;6.970;2023-02-19T01:45:25;14.80;76.80
60313;DHT22;46158;52.850;6.970;2023-02-19T01:47:53;14.70;76.80
60313;DHT22;46158;52.850;6.970;2023-02-19T01:50:19;14.70;76.70
60313;DHT22;46158;52.850;6.970;2023-02-19T01:52:45;14.70;76.70
60313;DHT22;46158;52.850;6.970;2023-02-19T01:55:11;14.70;76.70
60313;DHT22;46158;52.850;6.970;2023-02-19T01:57:38;14.70;76.70
60313;DHT22;46158;52.850;6.970;2023-02-19T02:00:09;14.70;76.70
60313;DHT22;46158;52.850;6.970;2023-02-19T02:02:36;14.70;76.70
60313;DHT22;46158;52.850;6.970;2023-02-19T02:05:03;14.70;76.70
60313;DHT22;46158;52.850;6.970;2023-02-19T02:07:29;14.70;76.70
60313;DHT22;46158;52.850;6.970;2023-02-19T02:10:13;14.70;76.70
60313;DHT22;46158;52.850;6.970;2023-02-19T02:12:46;14.70;76.70
60313;DHT22;46158;52.850;6.970;2023-02-19T02:15:12;14.60;76.60
60313;DHT22;46158;52.850;6.970;2023-02-19T02:25:13;14.60;76.60
60313;DHT22;46158;52.850;6.970;2023-02-19T02:32:50;14.60;76.50
60313;DHT22;46158;52.850;6.970;2023-02-19T02:35:19;14.60;76.50
60313;DHT22;46158;52.850;6.970;2023-02-19T02:37:46;14.60;76.50
60313;DHT22;46158;52.850;6.970;2023-02-19T02:40:12;14.60;76.50
60313;DHT22;46158;52.850;6.970;2023-02-19T02:42:38;14.60;76.50
60313;DHT22;46158;52.850;6.970;2023-02-19T02:50:48;14.50;76.40
60313;DHT22;46158;52.850;6.970;2023-02-19T02:53:17;14.50;76.40
60313;DHT22;46158;52.850;6.970;2023-02-19T02:56:02;14.50;76.30
60313;DHT22;46158;52.850;6.970;2023-02-19T02:58:29;14.50;76.30
60313;DHT22;46158;52.850;6.970;2023-02-19T03:01:01;14.50;76.30
60313;DHT22;46158;52.850;6.970;2023-02-19T03:03:47;14.50;76.30
60313;DHT22;46158;52.850;6.970;2023-02-19T03:06:16;14.50;76.30
60313;DHT22;46158;52.850;6.970;2023-02-19T03:09:16;14.50;76.30
60313;DHT22;46158;52.850;6.970;2023-02-19T03:11:34;14.50;76.30
60313;DHT22;46158;52.850;6.970;2023-02-19T03:14:29;14.50;76.30
60313;DHT22;46158;52.850;6.970;2023-02-19T03:17:20;14.40;76.20
60313;DHT22;46158;52.850;6.970;2023-02-19T03:20:06;14.40;76.20
60313;DHT22;46158;52.850;6.970;2023-02-19T03:22:33;14.40;76.20
60313;DHT22;46158;52.850;6.970;2023-02-19T03:25:11;14.40;76.20
60313;DHT22;46158;52.850;6.970;2023-02-19T03:27:56;14.50;76.30
60313;DHT22;46158;52.850;6.970;2023-02-19T03:30:24;14.40;76.20
60313;DHT22;46158;52.850;6.970;2023-02-19T03:32:54;14.40;76.20
60313;DHT22;46158;52.850;6.970;2023-02-19T03:35:22;14.40;76.20
60313;DHT22;46158;52.850;6.970;2023-02-19T03:40:34;14.40;76.10
60313;DHT22;46158;52.850;6.970;2023-02-19T03:43:20;14.40;76.10
60313;DHT22;46158;52.850;6.970;2023-02-19T03:46:01;14.40;76.00
60313;DHT22;46158;52.850;6.970;2023-02-19T03:48:34;14.40;76.10
60313;DHT22;46158;52.850;6.970;2023-02-19T03:56:12;14.30;76.00
60313;DHT22;46158;52.850;6.970;2023-02-19T04:01:07;14.30;75.90
60313;DHT22;46158;52.850;6.970;2023-02-19T04:08:45;14.30;76.00
60313;DHT22;46158;52.850;6.970;2023-02-19T04:11:12;14.30;75.90
60313;DHT22;46158;52.850;6.970;2023-02-19T04:13:46;14.30;75.90
60313;DHT22;46158;52.850;6.970;2023-02-19T04:16:16;14.20;75.80
60313;DHT22;46158;52.850;6.970;2023-02-19T04:18:43;14.20;75.80
60313;DHT22;46158;52.850;6.970;2023-02-19T04:21:12;14.20;75.80
60313;DHT22;46158;52.850;6.970;2023-02-19T04:23:39;14.20;75.80
60313;DHT22;46158;52.850;6.970;2023-02-19T04:26:07;14.20;76.50
60313;DHT22;46158;52.850;6.970;2023-02-19T04:28:33;14.20;75.80
60313;DHT22;46158;52.850;6.970;2023-02-19T04:30:59;14.20;75.80
60313;DHT22;46158;52.850;6.970;2023-02-19T04:33:25;14.20;75.80
60313;DHT22;46158;52.850;6.970;2023-02-19T04:35:50;14.20;75.70
60313;DHT22;46158;52.850;6.970;2023-02-19T04:38:16;14.20;75.70
60313;DHT22;46158;52.850;6.970;2023-02-19T04:40:41;14.20;75.70
60313;DHT22;46158;52.850;6.970;2023-02-19T04:43:07;14.10;75.70
60313;DHT22;46158;52.850;6.970;2023-02-19T04:45:33;14.10;75.70
60313;DHT22;46158;52.850;6.970;2023-02-19T04:47:58;14.10;75.70
60313;DHT22;46158;52.850;6.970;2023-02-19T04:50:24;14.10;75.70
60313;DHT22;46158;52.850;6.970;2023-02-19T04:52:50;14.10;75.70
60313;DHT22;46158;52.850;6.970;2023-02-19T04:55:15;14.10;75.70
60313;DHT22;46158;52.850;6.970;2023-02-19T04:57:41;14.10;75.70
60313;DHT22;46158;52.850;6.970;2023-02-19T05:00:07;14.10;75.70
60313;DHT22;46158;52.850;6.970;2023-02-19T05:02:33;14.00;75.60
60313;DHT22;46158;52.850;6.970;2023-02-19T05:04:59;14.10;75.70
60313;DHT22;46158;52.850;6.970;2023-02-19T05:07:25;14.00;75.60
60313;DHT22;46158;52.850;6.970;2023-02-19T05:09:50;14.00;75.60
60313;DHT22;46158;52.850;6.970;2023-02-19T05:12:16;14.00;75.60
60313;DHT22;46158;52.850;6.970;2023-02-19T05:14:41;14.00;75.70
60313;DHT22;46158;52.850;6.970;2023-02-19T05:17:07;14.00;75.60
60313;DHT22;46158;52.850;6.970;2023-02-19T05:19:33;14.00;75.60
60313;DHT22;46158;52.850;6.970;2023-02-19T05:21:58;13.90;75.60
60313;DHT22;46158;52.850;6.970;2023-02-19T05:24:24;13.90;75.60
60313;DHT22;46158;52.850;6.970;2023-02-19T05:26:51;13.90;75.60
60313;DHT22;46158;52.850;6.970;2023-02-19T05:29:16;13.90;75.60
60313;DHT22;46158;52.850;6.970;2023-02-19T05:31:42;13.90;75.60
60313;DHT22;46158;52.850;6.970;2023-02-19T05:34:07;13.90;75.60
60313;DHT22;46158;52.850;6.970;2023-02-19T05:36:33;13.90;75.60
60313;DHT22;46158;52.850;6.970;2023-02-19T05:38:58;13.90;75.60
60313;DHT22;46158;52.850;6.970;2023-02-19T05:41:25;13.90;75.60
60313;DHT22;46158;52.850;6.970;2023-02-19T05:43:51;13.90;75.60
60313;DHT22;46158;52.850;6.970;2023-02-19T05:46:18;13.90;75.60
60313;DHT22;46158;52.850;6.970;2023-02-19T05:48:44;13.90;75.70
60313;DHT22;46158;52.850;6.970;2023-02-19T05:51:11;13.80;75.70
60313;DHT22;46158;52.850;6.970;2023-02-19T05:53:37;13.90;75.80
60313;DHT22;46158;52.850;6.970;2023-02-19T05:56:03;13.80;75.80
60313;DHT22;46158;52.850;6.970;2023-02-19T05:58:28;13.80;75.80
60313;DHT22;46158;52.850;6.970;2023-02-19T06:00:54;13.80;75.90
60313;DHT22;46158;52.850;6.970;2023-02-19T06:03:20;13.80;76.40
60313;DHT22;46158;52.850;6.970;2023-02-19T06:05:46;13.80;75.90
60313;DHT22;46158;52.850;6.970;2023-02-19T06:08:12;13.80;76.00
60313;DHT22;46158;52.850;6.970;2023-02-19T06:10:38;13.80;76.10
60313;DHT22;46158;52.850;6.970;2023-02-19T06:13:08;13.80;76.10
60313;DHT22;46158;52.850;6.970;2023-02-19T06:15:35;13.80;76.10
60313;DHT22;46158;52.850;6.970;2023-02-19T06:18:00;13.80;76.20
60313;DHT22;46158;52.850;6.970;2023-02-19T06:20:26;13.80;76.20
60313;DHT22;46158;52.850;6.970;2023-02-19T06:22:52;13.80;76.20
60313;DHT22;46158;52.850;6.970;2023-02-19T06:25:18;13.80;76.30
60313;DHT22;46158;52.850;6.970;2023-02-19T06:27:43;13.80;76.30
60313;DHT22;46158;52.850;6.970;2023-02-19T06:30:09;13.80;76.30
60313;DHT22;46158;52.850;6.970;2023-02-19T06:32:35;13.80;76.40
60313;DHT22;46158;52.850;6.970;2023-02-19T06:35:00;13.80;76.40
60313;DHT22;46158;52.850;6.970;2023-02-19T06:37:26;13.80;76.40
60313;DHT22;46158;52.850;6.970;2023-02-19T06:39:52;13.80;76.50
60313;DHT22;46158;52.850;6.970;2023-02-19T06:42:17;13.80;76.50
60313;DHT22;46158;52.850;6.970;2023-02-19T06:44:45;13.80;76.60
60313;DHT22;46158;52.850;6.970;2023-02-19T06:47:11;13.80;76.60
60313;DHT22;46158;52.850;6.970;2023-02-19T06:49:38;13.80;76.60
60313;DHT22;46158;52.850;6.970;2023-02-19T06:52:03;13.80;76.70
60313;DHT22;46158;52.850;6.970;2023-02-19T06:54:29;13.80;76.70
60313;DHT22;46158;52.850;6.970;2023-02-19T06:56:55;13.70;76.70
60313;DHT22;46158;52.850;6.970;2023-02-19T06:59:23;13.80;76.80
60313;DHT22;46158;52.850;6.970;2023-02-19T07:01:52;13.80;76.90
60313;DHT22;46158;52.850;6.970;2023-02-19T07:04:17;13.80;76.90
60313;DHT22;46158;52.850;6.970;2023-02-19T07:06:43;13.80;76.90
60313;DHT22;46158;52.850;6.970;2023-02-19T07:09:09;13.80;76.90
60313;DHT22;46158;52.850;6.970;2023-02-19T07:11:36;13.80;76.90
60313;DHT22;46158;52.850;6.970;2023-02-19T07:14:03;13.80;77.00
60313;DHT22;46158;52.850;6.970;2023-02-19T07:16:29;13.70;77.00
60313;DHT22;46158;52.850;6.970;2023-02-19T07:18:55;13.80;77.10
60313;DHT22;46158;52.850;6.970;2023-02-19T07:21:21;13.80;77.10
60313;DHT22;46158;52.850;6.970;2023-02-19T07:23:47;13.80;77.10
60313;DHT22;46158;52.850;6.970;2023-02-19T07:26:16;13.80;77.10
60313;DHT22;46158;52.850;6.970;2023-02-19T07:28:42;13.70;77.20
60313;DHT22;46158;52.850;6.970;2023-02-19T07:31:08;13.80;77.20
60313;DHT22;46158;52.850;6.970;2023-02-19T07:33:34;13.70;77.20
60313;DHT22;46158;52.850;6.970;2023-02-19T07:35:59;13.80;77.30
60313;DHT22;46158;52.850;6.970;2023-02-19T07:38:26;13.80;77.40
60313;DHT22;46158;52.850;6.970;2023-02-19T07:40:55;13.80;77.40
60313;DHT22;46158;52.850;6.970;2023-02-19T07:43:21;13.80;77.50
60313;DHT22;46158;52.850;6.970;2023-02-19T07:45:47;13.70;77.60
60313;DHT22;46158;52.850;6.970;2023-02-19T07:48:12;13.80;77.70
60313;DHT22;46158;52.850;6.970;2023-02-19T07:50:38;13.80;77.90
60313;DHT22;46158;52.850;6.970;2023-02-19T07:53:04;13.80;77.90
60313;DHT22;46158;52.850;6.970;2023-02-19T07:55:32;13.80;77.90
60313;DHT22;46158;52.850;6.970;2023-02-19T07:57:58;13.80;77.90
60313;DHT22;46158;52.850;6.970;2023-02-19T08:00:24;13.80;78.00
60313;DHT22;46158;52.850;6.970;2023-02-19T08:02:53;13.80;78.00
60313;DHT22;46158;52.850;6.970;2023-02-19T08:05:31;13.80;78.10
60313;DHT22;46158;52.850;6.970;2023-02-19T08:07:57;13.80;78.10
60313;DHT22;46158;52.850;6.970;2023-02-19T08:10:23;13.80;78.10
60313;DHT22;46158;52.850;6.970;2023-02-19T08:13:10;13.80;78.20
60313;DHT22;46158;52.850;6.970;2023-02-19T08:18:19;13.80;78.30
60313;DHT22;46158;52.850;6.970;2023-02-19T08:20:45;13.80;78.50
60313;DHT22;46158;52.850;6.970;2023-02-19T08:23:11;13.80;78.50
60313;DHT22;46158;52.850;6.970;2023-02-19T08:25:37;13.80;78.50
60313;DHT22;46158;52.850;6.970;2023-02-19T08:28:03;13.80;78.60
60313;DHT22;46158;52.850;6.970;2023-02-19T08:30:29;13.80;78.60
60313;DHT22;46158;52.850;6.970;2023-02-19T08:32:57;13.80;78.60
60313;DHT22;46158;52.850;6.970;2023-02-19T08:35:23;13.80;78.20
60313;DHT22;46158;52.850;6.970;2023-02-19T08:37:49;13.80;78.10
60313;DHT22;46158;52.850;6.970;2023-02-19T08:40:14;13.70;78.00
60313;DHT22;46158;52.850;6.970;2023-02-19T08:42:40;13.70;78.10
60313;DHT22;46158;52.850;6.970;2023-02-19T08:45:05;13.70;78.30
60313;DHT22;46158;52.850;6.970;2023-02-19T08:47:34;13.70;78.10
60313;DHT22;46158;52.850;6.970;2023-02-19T08:50:00;13.70;78.20
60313;DHT22;46158;52.850;6.970;2023-02-19T08:52:26;13.70;78.30
60313;DHT22;46158;52.850;6.970;2023-02-19T08:54:52;13.70;78.30
60313;DHT22;46158;52.850;6.970;2023-02-19T08:57:17;13.70;78.30
60313;DHT22;46158;52.850;6.970;2023-02-19T08:59:43;13.70;78.60
60313;DHT22;46158;52.850;6.970;2023-02-19T09:02:09;13.70;78.50
60313;DHT22;46158;52.850;6.970;2023-02-19T09:04:37;13.70;78.40
60313;DHT22;46158;52.850;6.970;2023-02-19T09:07:03;13.70;78.50
60313;DHT22;46158;52.850;6.970;2023-02-19T09:09:32;13.80;78.80
60313;DHT22;46158;52.850;6.970;2023-02-19T09:11:58;13.70;78.80
60313;DHT22;46158;52.850;6.970;2023-02-19T09:14:23;13.80;78.80
60313;DHT22;46158;52.850;6.970;2023-02-19T09:16:50;13.80;78.80
60313;DHT22;46158;52.850;6.970;2023-02-19T09:19:16;13.80;78.80
60313;DHT22;46158;52.850;6.970;2023-02-19T09:21:41;13.80;78.90
60313;DHT22;46158;52.850;6.970;2023-02-19T09:24:07;13.80;78.90
60313;DHT22;46158;52.850;6.970;2023-02-19T09:26:33;13.90;79.00
60313;DHT22;46158;52.850;6.970;2023-02-19T09:28:59;13.90;79.70
60313;DHT22;46158;52.850;6.970;2023-02-19T09:31:24;13.90;79.00
60313;DHT22;46158;52.850;6.970;2023-02-19T09:33:50;13.90;78.90
60313;DHT22;46158;52.850;6.970;2023-02-19T09:36:16;13.90;78.90
60313;DHT22;46158;52.850;6.970;2023-02-19T09:38:43;13.90;78.90
60313;DHT22;46158;52.850;6.970;2023-02-19T09:41:21;14.00;78.90
60313;DHT22;46158;52.850;6.970;2023-02-19T09:43:49;14.00;79.00
60313;DHT22;46158;52.850;6.970;2023-02-19T09:46:56;14.00;78.90
60313;DHT22;46158;52.850;6.970;2023-02-19T09:49:10;14.00;78.80
60313;DHT22;46158;52.850;6.970;2023-02-19T09:51:37;14.00;78.70
60313;DHT22;46158;52.850;6.970;2023-02-19T09:54:05;14.00;78.70
60313;DHT22;46158;52.850;6.970;2023-02-19T09:56:31;14.00;78.60
60313;DHT22;46158;52.850;6.970;2023-02-19T09:58:57;14.10;78.60
60313;DHT22;46158;52.850;6.970;2023-02-19T10:01:24;14.10;78.60
60313;DHT22;46158;52.850;6.970;2023-02-19T10:03:51;14.10;78.40
60313;DHT22;46158;52.850;6.970;2023-02-19T10:06:21;14.10;78.30
60313;DHT22;46158;52.850;6.970;2023-02-19T10:08:52;14.10;78.40
60313;DHT22;46158;52.850;6.970;2023-02-19T10:11:18;14.10;78.30
60313;DHT22;46158;52.850;6.970;2023-02-19T10:13:44;14.10;78.30
60313;DHT22;46158;52.850;6.970;2023-02-19T10:16:12;14.10;78.20
60313;DHT22;46158;52.850;6.970;2023-02-19T10:18:41;14.10;78.50
60313;DHT22;46158;52.850;6.970;2023-02-19T10:21:21;14.10;78.20
60313;DHT22;46158;52.850;6.970;2023-02-19T10:23:48;14.10;78.10
60313;DHT22;46158;52.850;6.970;2023-02-19T10:26:15;14.10;78.10
60313;DHT22;46158;52.850;6.970;2023-02-19T10:28:41;14.10;78.00
60313;DHT22;46158;52.850;6.970;2023-02-19T10:31:13;14.10;77.90
60313;DHT22;46158;52.850;6.970;2023-02-19T10:33:59;14.10;77.90
60313;DHT22;46158;52.850;6.970;2023-02-19T10:38:51;14.10;77.90
60313;DHT22;46158;52.850;6.970;2023-02-19T10:41:18;14.10;77.90
60313;DHT22;46158;52.850;6.970;2023-02-19T10:46:46;14.10;77.70
60313;DHT22;46158;52.850;6.970;2023-02-19T10:49:21;14.20;77.80
60313;DHT22;46158;52.850;6.970;2023-02-19T10:51:48;14.10;77.70
60313;DHT22;46158;52.850;6.970;2023-02-19T10:54:24;14.10;77.60
60313;DHT22;46158;52.850;6.970;2023-02-19T10:56:51;14.20;77.70
60313;DHT22;46158;52.850;6.970;2023-02-19T11:01:52;14.20;77.60
60313;DHT22;46158;52.850;6.970;2023-02-19T11:04:17;14.10;77.10
60313;DHT22;46158;52.850;6.970;2023-02-19T11:06:43;14.20;77.30
60313;DHT22;46158;52.850;6.970;2023-02-19T11:12:04;14.20;77.50
60313;DHT22;46158;52.850;6.970;2023-02-19T11:14:31;14.20;77.60
60313;DHT22;46158;52.850;6.970;2023-02-19T11:16:58;14.20;77.70
60313;DHT22;46158;52.850;6.970;2023-02-19T11:19:28;14.20;77.80
60313;DHT22;46158;52.850;6.970;2023-02-19T11:21:54;14.20;77.90
60313;DHT22;46158;52.850;6.970;2023-02-19T11:24:33;14.20;77.90
60313;DHT22;46158;52.850;6.970;2023-02-19T11:27:00;14.20;77.90
60313;DHT22;46158;52.850;6.970;2023-02-19T11:29:26;14.20;77.90
60313;DHT22;46158;52.850;6.970;2023-02-19T11:31:54;14.20;77.90
60313;DHT22;46158;52.850;6.970;2023-02-19T11:39:33;14.30;78.00
60313;DHT22;46158;52.850;6.970;2023-02-19T11:42:07;14.30;78.00
60313;DHT22;46158;52.850;6.970;2023-02-19T11:44:49;14.30;78.00
60313;DHT22;46158;52.850;6.970;2023-02-19T11:52:36;14.30;78.30
60313;DHT22;46158;52.850;6.970;2023-02-19T12:00:26;14.30;78.40
60313;DHT22;46158;52.850;6.970;2023-02-19T12:05:20;14.40;78.90
60313;DHT22;46158;52.850;6.970;2023-02-19T12:07:54;14.30;78.90
60313;DHT22;46158;52.850;6.970;2023-02-19T12:28:15;14.50;79.20
60313;DHT22;46158;52.850;6.970;2023-02-19T12:39:14;14.50;79.80
60313;DHT22;46158;52.850;6.970;2023-02-19T12:41:48;14.50;79.90
60313;DHT22;46158;52.850;6.970;2023-02-19T12:44:17;14.50;80.10
60313;DHT22;46158;52.850;6.970;2023-02-19T12:46:55;14.50;80.00
60313;DHT22;46158;52.850;6.970;2023-02-19T12:49:35;14.60;80.00
60313;DHT22;46158;52.850;6.970;2023-02-19T12:52:15;14.60;79.90
60313;DHT22;46158;52.850;6.970;2023-02-19T12:54:44;14.60;79.80
60313;DHT22;46158;52.850;6.970;2023-02-19T12:57:20;14.60;79.70
60313;DHT22;46158;52.850;6.970;2023-02-19T13:00:00;14.60;79.60
60313;DHT22;46158;52.850;6.970;2023-02-19T13:02:48;14.60;79.60
60313;DHT22;46158;52.850;6.970;2023-02-19T13:05:19;14.60;79.50
60313;DHT22;46158;52.850;6.970;2023-02-19T13:12:41;14.60;79.60
60313;DHT22;46158;52.850;6.970;2023-02-19T13:15:15;14.60;79.90
60313;DHT22;46158;52.850;6.970;2023-02-19T13:17:51;14.60;79.90
60313;DHT22;46158;52.850;6.970;2023-02-19T13:20:24;14.60;79.80
60313;DHT22;46158;52.850;6.970;2023-02-19T13:26:08;14.60;79.80
60313;DHT22;46158;52.850;6.970;2023-02-19T13:36:18;14.60;79.80
60313;DHT22;46158;52.850;6.970;2023-02-19T13:38:46;14.60;79.70
60313;DHT22;46158;52.850;6.970;2023-02-19T13:41:16;14.60;79.70
60313;DHT22;46158;52.850;6.970;2023-02-19T13:43:42;14.60;79.70
60313;DHT22;46158;52.850;6.970;2023-02-19T13:46:12;14.60;79.80
60313;DHT22;46158;52.850;6.970;2023-02-19T13:48:39;14.70;79.90
60313;DHT22;46158;52.850;6.970;2023-02-19T13:51:50;14.70;79.90
60313;DHT22;46158;52.850;6.970;2023-02-19T13:58:57;14.70;80.10
60313;DHT22;46158;52.850;6.970;2023-02-19T14:02:10;14.70;80.10
60313;DHT22;46158;52.850;6.970;2023-02-19T14:19:43;14.70;80.70
60313;DHT22;46158;52.850;6.970;2023-02-19T14:24:55;14.70;80.80
60313;DHT22;46158;52.850;6.970;2023-02-19T14:27:21;14.70;80.70
60313;DHT22;46158;52.850;6.970;2023-02-19T14:29:47;14.60;80.60
60313;DHT22;46158;52.850;6.970;2023-02-19T14:32:17;14.60;80.70
60313;DHT22;46158;52.850;6.970;2023-02-19T14:34:44;14.60;80.80
60313;DHT22;46158;52.850;6.970;2023-02-19T14:37:16;14.60;81.00
60313;DHT22;46158;52.850;6.970;2023-02-19T14:39:43;14.70;81.00
60313;DHT22;46158;52.850;6.970;2023-02-19T14:42:16;14.60;81.10
60313;DHT22;46158;52.850;6.970;2023-02-19T14:44:48;14.60;81.00
60313;DHT22;46158;52.850;6.970;2023-02-19T14:47:17;14.60;81.10
60313;DHT22;46158;52.850;6.970;2023-02-19T14:49:45;14.60;81.10
60313;DHT22;46158;52.850;6.970;2023-02-19T14:52:14;14.70;81.20
60313;DHT22;46158;52.850;6.970;2023-02-19T14:54:44;14.60;81.10
60313;DHT22;46158;52.850;6.970;2023-02-19T14:57:17;14.60;81.10
60313;DHT22;46158;52.850;6.970;2023-02-19T15:00:00;14.60;81.10
60313;DHT22;46158;52.850;6.970;2023-02-19T15:02:29;14.60;81.10
60313;DHT22;46158;52.850;6.970;2023-02-19T15:04:55;14.60;81.10
60313;DHT22;46158;52.850;6.970;2023-02-19T15:07:28;14.60;81.10
60313;DHT22;46158;52.850;6.970;2023-02-19T15:09:55;14.60;81.10
60313;DHT22;46158;52.850;6.970;2023-02-19T15:12:22;14.60;81.10
60313;DHT22;46158;52.850;6.970;2023-02-19T15:14:49;14.60;81.10
60313;DHT22;46158;52.850;6.970;2023-02-19T15:17:26;14.70;81.20
60313;DHT22;46158;52.850;6.970;2023-02-19T15:19:53;14.70;81.30
60313;DHT22;46158;52.850;6.970;2023-02-19T15:22:21;14.70;81.30
60313;DHT22;46158;52.850;6.970;2023-02-19T15:24:47;14.70;81.30
60313;DHT22;46158;52.850;6.970;2023-02-19T15:27:19;14.70;81.30
60313;DHT22;46158;52.850;6.970;2023-02-19T15:29:46;14.70;81.30
60313;DHT22;46158;52.850;6.970;2023-02-19T15:32:19;14.70;81.30
60313;DHT22;46158;52.850;6.970;2023-02-19T15:35:17;14.70;81.30
60313;DHT22;46158;52.850;6.970;2023-02-19T15:37:33;14.70;81.30
60313;DHT22;46158;52.850;6.970;2023-02-19T15:40:02;14.70;81.20
60313;DHT22;46158;52.850;6.970;2023-02-19T15:42:30;14.70;81.10
60313;DHT22;46158;52.850;6.970;2023-02-19T15:49:56;14.70;81.00
60313;DHT22;46158;52.850;6.970;2023-02-19T15:52:27;14.70;81.10
60313;DHT22;46158;52.850;6.970;2023-02-19T15:57:45;14.70;80.90
60313;DHT22;46158;52.850;6.970;2023-02-19T16:00:16;14.70;80.90
60313;DHT22;46158;52.850;6.970;2023-02-19T16:02:42;14.70;81.00
60313;DHT22;46158;52.850;6.970;2023-02-19T16:05:12;14.70;81.20
60313;DHT22;46158;52.850;6.970;2023-02-19T16:07:40;14.70;81.00
60313;DHT22;46158;52.850;6.970;2023-02-19T16:10:18;14.70;81.00
60313;DHT22;46158;52.850;6.970;2023-02-19T16:12:57;14.70;81.00
60313;DHT22;46158;52.850;6.970;2023-02-19T16:15:23;14.60;80.90
60313;DHT22;46158;52.850;6.970;2023-02-19T16:17:49;14.70;81.50
60313;DHT22;46158;52.850;6.970;2023-02-19T16:22:46;14.70;80.90
60313;DHT22;46158;52.850;6.970;2023-02-19T16:25:25;14.70;80.80
60313;DHT22;46158;52.850;6.970;2023-02-19T16:27:51;14.60;80.80
60313;DHT22;46158;52.850;6.970;2023-02-19T16:35:37;14.60;80.80
60313;DHT22;46158;52.850;6.970;2023-02-19T16:38:15;14.60;80.80
60313;DHT22;46158;52.850;6.970;2023-02-19T16:45:45;14.60;80.80
60313;DHT22;46158;52.850;6.970;2023-02-19T16:48:11;14.60;80.80
60313;DHT22;46158;52.850;6.970;2023-02-19T16:50:38;14.60;80.80
60313;DHT22;46158;52.850;6.970;2023-02-19T16:53:05;14.60;80.80
60313;DHT22;46158;52.850;6.970;2023-02-19T16:55:31;14.60;80.90
60313;DHT22;46158;52.850;6.970;2023-02-19T16:57:59;14.60;80.80
60313;DHT22;46158;52.850;6.970;2023-02-19T17:00:25;14.60;81.10
60313;DHT22;46158;52.850;6.970;2023-02-19T17:02:52;14.60;81.10
60313;DHT22;46158;52.850;6.970;2023-02-19T17:05:19;14.60;81.10
60313;DHT22;46158;52.850;6.970;2023-02-19T17:07:45;14.60;81.00
60313;DHT22;46158;52.850;6.970;2023-02-19T17:10:18;14.60;80.90
60313;DHT22;46158;52.850;6.970;2023-02-19T17:12:44;14.60;80.90
60313;DHT22;46158;52.850;6.970;2023-02-19T17:15:10;14.60;80.80
60313;DHT22;46158;52.850;6.970;2023-02-19T17:17:36;14.60;80.80
60313;DHT22;46158;52.850;6.970;2023-02-19T17:20:02;14.60;80.90
60313;DHT22;46158;52.850;6.970;2023-02-19T17:22:36;14.60;80.80
60313;DHT22;46158;52.850;6.970;2023-02-19T17:25:02;14.60;80.70
60313;DHT22;46158;52.850;6.970;2023-02-19T17:27:28;14.60;80.70
60313;DHT22;46158;52.850;6.970;2023-02-19T17:29:53;14.60;80.80
60313;DHT22;46158;52.850;6.970;2023-02-19T17:32:19;14.60;80.80
60313;DHT22;46158;52.850;6.970;2023-02-19T17:34:44;14.50;80.70
60313;DHT22;46158;52.850;6.970;2023-02-19T17:37:13;14.60;80.80
60313;DHT22;46158;52.850;6.970;2023-02-19T17:39:39;14.60;80.80
60313;DHT22;46158;52.850;6.970;2023-02-19T17:42:04;14.50;80.80
60313;DHT22;46158;52.850;6.970;2023-02-19T17:44:30;14.50;80.80
60313;DHT22;46158;52.850;6.970;2023-02-19T17:46:55;14.50;80.70
60313;DHT22;46158;52.850;6.970;2023-02-19T17:49:21;14.60;80.90
60313;DHT22;46158;52.850;6.970;2023-02-19T17:51:47;14.50;80.80
60313;DHT22;46158;52.850;6.970;2023-02-19T17:54:12;14.60;80.80
60313;DHT22;46158;52.850;6.970;2023-02-19T17:56:38;14.50;80.80
60313;DHT22;46158;52.850;6.970;2023-02-19T17:59:07;14.60;80.90
60313;DHT22;46158;52.850;6.970;2023-02-19T18:01:33;14.50;80.80
60313;DHT22;46158;52.850;6.970;2023-02-19T18:03:59;14.50;80.80
60313;DHT22;46158;52.850;6.970;2023-02-19T18:06:25;14.50;80.80
60313;DHT22;46158;52.850;6.970;2023-02-19T18:08:51;14.50;80.80
60313;DHT22;46158;52.850;6.970;2023-02-19T18:11:17;14.50;80.80